sensor_id;sensor_type;location;lat;lon;timestamp;pressure;altitude;pressure_sealevel;temperature;humidity
59411;BME280;45215;32.610;-115.482;2022-08-02T00:01:24;100884.63;;;21.81;43.80
59411;BME280;45215;32.610;-115.482;2022-08-02T00:03:50;100881.94;;;21.44;41.23
59411;BME280;45215;32.610;-115.482;2022-08-02T00:06:16;100886.41;;;21.13;39.58
59411;BME280;45215;32.610;-115.482;2022-08-02T00:08:42;100891.13;;;21.34;47.54
59411;BME280;45215;32.610;-115.482;2022-08-02T00:11:07;100896.22;;;21.67;44.86
59411;BME280;45215;32.610;-115.482;2022-08-02T00:13:33;100890.28;;;21.34;41.33
59411;BME280;45215;32.610;-115.482;2022-08-02T00:15:59;100879.81;;;20.85;40.01
59411;BME280;45215;32.610;-115.482;2022-08-02T00:18:25;100886.16;;;20.69;43.38
59411;BME280;45215;32.610;-115.482;2022-08-02T00:20:50;100880.09;;;21.21;46.53
59411;BME280;45215;32.610;-115.482;2022-08-02T00:23:16;100882.84;;;21.13;41.56
59411;BME280;45215;32.610;-115.482;2022-08-02T00:25:42;100884.88;;;20.88;39.65
59411;BME280;45215;32.610;-115.482;2022-08-02T00:28:08;100878.72;;;20.71;40.60
59411;BME280;45215;32.610;-115.482;2022-08-02T00:30:35;100884.19;;;21.17;46.71
59411;BME280;45215;32.610;-115.482;2022-08-02T00:33:01;100882.16;;;21.19;41.16
59411;BME280;45215;32.610;-115.482;2022-08-02T00:35:29;100881.16;;;20.89;39.22
59411;BME280;45215;32.610;-115.482;2022-08-02T00:37:55;100874.03;;;20.65;38.83
59411;BME280;45215;32.610;-115.482;2022-08-02T00:40:21;100876.38;;;20.99;45.50
59411;BME280;45215;32.610;-115.482;2022-08-02T00:42:58;100881.78;;;21.22;42.58
59411;BME280;45215;32.610;-115.482;2022-08-02T00:45:24;100869.47;;;20.97;39.51
59411;BME280;45215;32.610;-115.482;2022-08-02T00:47:50;100873.34;;;20.71;38.02
59411;BME280;45215;32.610;-115.482;2022-08-02T00:50:16;100870.16;;;20.90;44.08
59411;BME280;45215;32.610;-115.482;2022-08-02T00:52:42;100880.47;;;21.18;42.09
59411;BME280;45215;32.610;-115.482;2022-08-02T00:55:08;100877.91;;;20.93;38.82
59411;BME280;45215;32.610;-115.482;2022-08-02T00:57:34;100879.41;;;20.65;37.48
59411;BME280;45215;32.610;-115.482;2022-08-02T00:59:59;100883.44;;;20.69;42.25
59411;BME280;45215;32.610;-115.482;2022-08-02T01:02:25;100877.81;;;21.10;42.42
59411;BME280;45215;32.610;-115.482;2022-08-02T01:04:51;100873.22;;;20.87;39.44
59411;BME280;45215;32.610;-115.482;2022-08-02T01:07:17;100875.41;;;20.61;37.61
59411;BME280;45215;32.610;-115.482;2022-08-02T01:09:43;100868.03;;;20.55;40.58
59411;BME280;45215;32.610;-115.482;2022-08-02T01:12:10;100874.66;;;20.98;43.34
59411;BME280;45215;32.610;-115.482;2022-08-02T01:14:36;100868.53;;;20.81;39.21
59411;BME280;45215;32.610;-115.482;2022-08-02T01:17:05;100864.66;;;20.53;37.46
59411;BME280;45215;32.610;-115.482;2022-08-02T01:30:02;100857.25;;;20.55;37.87
59411;BME280;45215;32.610;-115.482;2022-08-02T01:32:30;100859.34;;;20.67;43.46
59411;BME280;45215;32.610;-115.482;2022-08-02T01:37:25;100855.09;;;20.73;38.71
59411;BME280;45215;32.610;-115.482;2022-08-02T01:39:53;100855.31;;;20.40;37.35
59411;BME280;45215;32.610;-115.482;2022-08-02T01:42:21;100854.91;;;20.52;41.14
59411;BME280;45215;32.610;-115.482;2022-08-02T01:44:49;100856.59;;;21.07;42.65
59411;BME280;45215;32.610;-115.482;2022-08-02T01:47:21;100850.75;;;20.95;40.10
59411;BME280;45215;32.610;-115.482;2022-08-02T01:49:49;100842.97;;;20.77;38.49
59411;BME280;45215;32.610;-115.482;2022-08-02T01:52:16;100857.75;;;20.81;43.56
59411;BME280;45215;32.610;-115.482;2022-08-02T01:55:07;100864.25;;;21.41;44.05
59411;BME280;45215;32.610;-115.482;2022-08-02T01:57:39;100856.00;;;20.97;39.42
59411;BME280;45215;32.610;-115.482;2022-08-02T02:00:06;100856.22;;;20.56;37.96
59411;BME280;45215;32.610;-115.482;2022-08-02T02:02:35;100860.78;;;20.55;40.98
59411;BME280;45215;32.610;-115.482;2022-08-02T02:05:01;100867.91;;;21.02;42.79
59411;BME280;45215;32.610;-115.482;2022-08-02T02:07:28;100870.28;;;20.74;39.46
59411;BME280;45215;32.610;-115.482;2022-08-02T02:09:56;100872.13;;;20.42;37.93
59411;BME280;45215;32.610;-115.482;2022-08-02T02:12:22;100874.50;;;20.37;40.29
59411;BME280;45215;32.610;-115.482;2022-08-02T02:14:49;100876.28;;;20.84;43.97
59411;BME280;45215;32.610;-115.482;2022-08-02T02:17:15;100874.19;;;20.71;39.33
59411;BME280;45215;32.610;-115.482;2022-08-02T02:19:41;100871.47;;;20.40;37.47
59411;BME280;45215;32.610;-115.482;2022-08-02T02:22:09;100876.56;;;20.27;39.12
59411;BME280;45215;32.610;-115.482;2022-08-02T02:24:34;100879.56;;;20.71;44.66
59411;BME280;45215;32.610;-115.482;2022-08-02T02:27:00;100878.13;;;21.15;44.47
59411;BME280;45215;32.610;-115.482;2022-08-02T02:29:28;100879.63;;;20.86;40.03
59411;BME280;45215;32.610;-115.482;2022-08-02T02:31:54;100880.16;;;20.50;38.10
59411;BME280;45215;32.610;-115.482;2022-08-02T02:36:51;100888.56;;;20.87;44.18
59411;BME280;45215;32.610;-115.482;2022-08-02T02:39:19;100881.22;;;20.72;39.49
59411;BME280;45215;32.610;-115.482;2022-08-02T02:41:46;100880.06;;;20.36;37.58
59411;BME280;45215;32.610;-115.482;2022-08-02T02:44:15;100879.28;;;20.19;39.10
59411;BME280;45215;32.610;-115.482;2022-08-02T02:46:41;100885.66;;;20.65;43.70
59411;BME280;45215;32.610;-115.482;2022-08-02T02:49:09;100885.53;;;21.13;44.82
59411;BME280;45215;32.610;-115.482;2022-08-02T02:51:36;100884.19;;;20.86;39.79
59411;BME280;45215;32.610;-115.482;2022-08-02T02:54:04;100886.78;;;20.48;37.97
59411;BME280;45215;32.610;-115.482;2022-08-02T02:56:30;100891.19;;;20.33;39.79
59411;BME280;45215;32.610;-115.482;2022-08-02T02:58:56;100892.50;;;20.76;43.79
59411;BME280;45215;32.610;-115.482;2022-08-02T03:01:22;100895.25;;;20.68;39.35
59411;BME280;45215;32.610;-115.482;2022-08-02T03:04:00;100892.38;;;20.30;37.56
59411;BME280;45215;32.610;-115.482;2022-08-02T03:06:27;100900.34;;;20.15;38.72
59411;BME280;45215;32.610;-115.482;2022-08-02T03:08:53;100901.16;;;20.63;42.92
59411;BME280;45215;32.610;-115.482;2022-08-02T03:11:19;100910.53;;;21.07;43.95
59411;BME280;45215;32.610;-115.482;2022-08-02T03:13:45;100905.94;;;20.84;39.43
59411;BME280;45215;32.610;-115.482;2022-08-02T03:16:11;100908.81;;;20.52;37.57
59411;BME280;45215;32.610;-115.482;2022-08-02T03:18:38;100921.63;;;20.41;40.37
59411;BME280;45215;32.610;-115.482;2022-08-02T03:21:05;100920.78;;;20.80;43.17
59411;BME280;45215;32.610;-115.482;2022-08-02T03:23:32;100919.53;;;20.68;38.73
59411;BME280;45215;32.610;-115.482;2022-08-02T03:25:58;100919.13;;;20.40;37.02
59411;BME280;45215;32.610;-115.482;2022-08-02T03:28:24;100919.19;;;20.23;39.07
59411;BME280;45215;32.610;-115.482;2022-08-02T03:30:49;100921.72;;;20.64;43.24
59411;BME280;45215;32.610;-115.482;2022-08-02T03:33:16;100929.44;;;21.07;45.25
59411;BME280;45215;32.610;-115.482;2022-08-02T03:35:42;100920.56;;;20.90;40.15
59411;BME280;45215;32.610;-115.482;2022-08-02T03:38:10;100922.09;;;20.53;37.83
59411;BME280;45215;32.610;-115.482;2022-08-02T03:40:37;100923.53;;;20.33;38.52
59411;BME280;45215;32.610;-115.482;2022-08-02T03:43:03;100933.31;;;20.65;43.04
59411;BME280;45215;32.610;-115.482;2022-08-02T03:45:29;100935.19;;;21.04;44.76
59411;BME280;45215;32.610;-115.482;2022-08-02T03:47:55;100942.31;;;20.88;39.78
59411;BME280;45215;32.610;-115.482;2022-08-02T03:50:22;100940.13;;;20.53;37.74
59411;BME280;45215;32.610;-115.482;2022-08-02T03:52:49;100938.00;;;20.32;39.25
59411;BME280;45215;32.610;-115.482;2022-08-02T03:55:16;100944.78;;;20.67;43.56
59411;BME280;45215;32.610;-115.482;2022-08-02T03:57:42;100953.69;;;21.07;45.14
59411;BME280;45215;32.610;-115.482;2022-08-02T04:00:08;100953.13;;;20.88;39.70
59411;BME280;45215;32.610;-115.482;2022-08-02T04:02:35;100956.28;;;20.53;37.86
59411;BME280;45215;32.610;-115.482;2022-08-02T04:05:01;100959.56;;;20.32;38.89
59411;BME280;45215;32.610;-115.482;2022-08-02T04:07:27;100961.31;;;20.64;43.66
59411;BME280;45215;32.610;-115.482;2022-08-02T04:09:53;100958.25;;;21.06;44.77
59411;BME280;45215;32.610;-115.482;2022-08-02T04:12:18;100965.25;;;20.84;40.00
59411;BME280;45215;32.610;-115.482;2022-08-02T04:14:44;100962.03;;;20.49;37.91
59411;BME280;45215;32.610;-115.482;2022-08-02T04:17:11;100963.44;;;20.29;39.12
59411;BME280;45215;32.610;-115.482;2022-08-02T04:19:39;100974.44;;;20.67;44.45
59411;BME280;45215;32.610;-115.482;2022-08-02T04:22:08;100966.19;;;21.08;44.46
59411;BME280;45215;32.610;-115.482;2022-08-02T04:24:39;100968.13;;;20.83;39.79
59411;BME280;45215;32.610;-115.482;2022-08-02T04:27:06;100963.88;;;20.49;37.62
59411;BME280;45215;32.610;-115.482;2022-08-02T04:29:33;100970.16;;;20.25;39.15
59411;BME280;45215;32.610;-115.482;2022-08-02T04:31:59;100970.78;;;20.60;44.09
59411;BME280;45215;32.610;-115.482;2022-08-02T04:34:25;100971.28;;;21.03;45.01
59411;BME280;45215;32.610;-115.482;2022-08-02T04:36:51;100973.19;;;20.86;40.34
59411;BME280;45215;32.610;-115.482;2022-08-02T04:39:17;100971.16;;;20.48;37.96
59411;BME280;45215;32.610;-115.482;2022-08-02T04:41:43;100979.97;;;20.26;38.71
59411;BME280;45215;32.610;-115.482;2022-08-02T04:44:11;100976.28;;;20.66;45.02
59411;BME280;45215;32.610;-115.482;2022-08-02T04:46:37;100987.25;;;21.04;44.58
59411;BME280;45215;32.610;-115.482;2022-08-02T04:49:03;100983.13;;;20.85;39.79
59411;BME280;45215;32.610;-115.482;2022-08-02T04:51:29;100981.56;;;20.52;37.95
59411;BME280;45215;32.610;-115.482;2022-08-02T04:53:55;100984.97;;;20.37;37.98
59411;BME280;45215;32.610;-115.482;2022-08-02T04:56:21;100995.00;;;20.68;42.00
59411;BME280;45215;32.610;-115.482;2022-08-02T04:58:47;100991.09;;;21.10;45.46
59411;BME280;45215;32.610;-115.482;2022-08-02T05:01:13;100996.88;;;20.99;40.01
59411;BME280;45215;32.610;-115.482;2022-08-02T05:03:39;100991.31;;;20.61;38.05
59411;BME280;45215;32.610;-115.482;2022-08-02T05:06:04;100988.84;;;20.35;38.28
59411;BME280;45215;32.610;-115.482;2022-08-02T05:08:30;100996.34;;;20.64;43.92
59411;BME280;45215;32.610;-115.482;2022-08-02T05:10:56;100996.50;;;21.10;45.70
59411;BME280;45215;32.610;-115.482;2022-08-02T05:13:22;100992.19;;;20.92;40.01
59411;BME280;45215;32.610;-115.482;2022-08-02T05:15:48;100988.28;;;20.56;38.17
59411;BME280;45215;32.610;-115.482;2022-08-02T05:18:15;100988.38;;;20.31;38.64
59411;BME280;45215;32.610;-115.482;2022-08-02T05:20:40;100999.72;;;20.66;44.26
59411;BME280;45215;32.610;-115.482;2022-08-02T05:23:06;101008.31;;;21.09;46.35
59411;BME280;45215;32.610;-115.482;2022-08-02T05:25:32;101003.28;;;20.98;40.42
59411;BME280;45215;32.610;-115.482;2022-08-02T05:27:58;100992.50;;;20.58;38.06
59411;BME280;45215;32.610;-115.482;2022-08-02T05:30:24;101001.84;;;20.31;37.36
59411;BME280;45215;32.610;-115.482;2022-08-02T05:32:49;101003.81;;;20.54;43.32
59411;BME280;45215;32.610;-115.482;2022-08-02T05:35:20;101006.13;;;21.04;46.71
59411;BME280;45215;32.610;-115.482;2022-08-02T05:37:46;101002.25;;;20.99;40.99
59411;BME280;45215;32.610;-115.482;2022-08-02T05:40:12;101000.06;;;20.63;38.24
59411;BME280;45215;32.610;-115.482;2022-08-02T05:42:38;100999.97;;;20.32;36.78
59411;BME280;45215;32.610;-115.482;2022-08-02T05:45:04;101001.97;;;20.46;42.76
59411;BME280;45215;32.610;-115.482;2022-08-02T05:47:30;101010.06;;;20.93;46.96
59411;BME280;45215;32.610;-115.482;2022-08-02T05:49:56;101005.31;;;21.04;42.21
59411;BME280;45215;32.610;-115.482;2022-08-02T05:52:23;101002.06;;;20.69;39.22
59411;BME280;45215;32.610;-115.482;2022-08-02T05:54:54;101001.63;;;20.41;37.44
59411;BME280;45215;32.610;-115.482;2022-08-02T06:00:00;101007.41;;;20.85;45.00
59411;BME280;45215;32.610;-115.482;2022-08-02T06:02:29;101010.00;;;21.02;41.25
59411;BME280;45215;32.610;-115.482;2022-08-02T06:05:02;101005.47;;;20.63;38.39
59411;BME280;45215;32.610;-115.482;2022-08-02T06:07:28;101000.47;;;20.35;36.88
59411;BME280;45215;32.610;-115.482;2022-08-02T06:09:54;101000.78;;;20.48;42.71
59411;BME280;45215;32.610;-115.482;2022-08-02T06:12:23;101012.41;;;20.97;44.98
59411;BME280;45215;32.610;-115.482;2022-08-02T06:14:50;101009.16;;;21.01;40.60
59411;BME280;45215;32.610;-115.482;2022-08-02T06:17:17;101008.50;;;20.60;38.19
59411;BME280;45215;32.610;-115.482;2022-08-02T06:19:43;101006.91;;;20.18;36.78
59411;BME280;45215;32.610;-115.482;2022-08-02T06:22:10;101008.06;;;20.32;40.50
59411;BME280;45215;32.610;-115.482;2022-08-02T06:24:45;101014.50;;;20.78;43.77
59411;BME280;45215;32.610;-115.482;2022-08-02T06:27:15;101019.31;;;20.99;41.55
59411;BME280;45215;32.610;-115.482;2022-08-02T06:29:43;101018.59;;;20.58;38.46
59411;BME280;45215;32.610;-115.482;2022-08-02T06:32:11;101013.97;;;20.19;36.80
59411;BME280;45215;32.610;-115.482;2022-08-02T06:34:40;101013.47;;;20.23;40.04
59411;BME280;45215;32.610;-115.482;2022-08-02T06:37:08;101016.56;;;20.68;42.66
59411;BME280;45215;32.610;-115.482;2022-08-02T06:39:42;101020.66;;;20.95;41.93
59411;BME280;45215;32.610;-115.482;2022-08-02T06:42:11;101009.69;;;20.57;38.74
59411;BME280;45215;32.610;-115.482;2022-08-02T06:44:37;101016.84;;;20.17;36.92
59411;BME280;45215;32.610;-115.482;2022-08-02T06:47:03;101020.84;;;20.13;40.11
59411;BME280;45215;32.610;-115.482;2022-08-02T06:49:29;101016.06;;;20.56;43.47
59411;BME280;45215;32.610;-115.482;2022-08-02T06:51:55;101021.69;;;20.94;43.67
59411;BME280;45215;32.610;-115.482;2022-08-02T06:54:20;101013.88;;;20.68;39.47
59411;BME280;45215;32.610;-115.482;2022-08-02T06:56:46;101016.66;;;20.27;37.14
59411;BME280;45215;32.610;-115.482;2022-08-02T06:59:12;101013.97;;;20.02;38.26
59411;BME280;45215;32.610;-115.482;2022-08-02T07:01:38;101022.69;;;20.37;42.13
59411;BME280;45215;32.610;-115.482;2022-08-02T07:04:04;101021.59;;;20.79;43.63
59411;BME280;45215;32.610;-115.482;2022-08-02T07:06:29;101023.25;;;20.80;40.25
59411;BME280;45215;32.610;-115.482;2022-08-02T07:08:55;101018.16;;;20.38;37.61
59411;BME280;45215;32.610;-115.482;2022-08-02T07:11:21;101019.66;;;19.99;36.66
59411;BME280;45215;32.610;-115.482;2022-08-02T07:13:48;101014.63;;;20.21;41.69
59411;BME280;45215;32.610;-115.482;2022-08-02T07:16:14;101024.97;;;20.65;42.56
59411;BME280;45215;32.610;-115.482;2022-08-02T07:18:40;101017.16;;;20.86;41.71
59411;BME280;45215;32.610;-115.482;2022-08-02T07:21:05;101017.94;;;20.47;38.40
59411;BME280;45215;32.610;-115.482;2022-08-02T07:23:31;101021.53;;;20.07;36.70
59411;BME280;45215;32.610;-115.482;2022-08-02T07:25:58;101023.03;;;20.01;39.79
59411;BME280;45215;32.610;-115.482;2022-08-02T07:28:24;101018.47;;;20.43;43.16
59411;BME280;45215;32.610;-115.482;2022-08-02T07:30:50;101013.31;;;20.81;43.46
59411;BME280;45215;32.610;-115.482;2022-08-02T07:33:16;101016.06;;;20.56;39.09
59411;BME280;45215;32.610;-115.482;2022-08-02T07:35:42;101010.06;;;20.13;37.30
59411;BME280;45215;32.610;-115.482;2022-08-02T07:38:07;101007.41;;;19.89;37.87
59411;BME280;45215;32.610;-115.482;2022-08-02T07:40:33;101009.09;;;20.22;41.54
59411;BME280;45215;32.610;-115.482;2022-08-02T07:42:59;101005.09;;;20.66;44.46
59411;BME280;45215;32.610;-115.482;2022-08-02T07:45:25;101004.88;;;20.76;41.15
59411;BME280;45215;32.610;-115.482;2022-08-02T07:47:51;101000.13;;;20.30;38.00
59411;BME280;45215;32.610;-115.482;2022-08-02T07:50:18;101002.84;;;19.89;36.54
59411;BME280;45215;32.610;-115.482;2022-08-02T07:52:44;101011.94;;;20.04;40.99
59411;BME280;45215;32.610;-115.482;2022-08-02T07:55:10;101008.53;;;20.52;44.20
59411;BME280;45215;32.610;-115.482;2022-08-02T07:57:37;101009.78;;;20.80;42.47
59411;BME280;45215;32.610;-115.482;2022-08-02T08:00:03;101006.53;;;20.45;38.48
59411;BME280;45215;32.610;-115.482;2022-08-02T08:02:29;101018.16;;;20.05;36.62
59411;BME280;45215;32.610;-115.482;2022-08-02T08:04:55;101024.91;;;19.93;39.52
59411;BME280;45215;32.610;-115.482;2022-08-02T08:07:21;101017.66;;;20.34;42.44
59411;BME280;45215;32.610;-115.482;2022-08-02T08:09:47;101020.22;;;20.75;44.72
59411;BME280;45215;32.610;-115.482;2022-08-02T08:12:15;101021.09;;;20.59;39.37
59411;BME280;45215;32.610;-115.482;2022-08-02T08:14:40;101017.69;;;20.18;37.40
59411;BME280;45215;32.610;-115.482;2022-08-02T08:17:06;101017.34;;;19.88;37.07
59411;BME280;45215;32.610;-115.482;2022-08-02T08:19:32;101025.06;;;20.16;42.68
59411;BME280;45215;32.610;-115.482;2022-08-02T08:21:58;101023.31;;;20.56;44.47
59411;BME280;45215;32.610;-115.482;2022-08-02T08:24:25;101023.28;;;20.72;41.13
59411;BME280;45215;32.610;-115.482;2022-08-02T08:26:51;101018.16;;;20.30;37.88
59411;BME280;45215;32.610;-115.482;2022-08-02T08:29:17;101022.72;;;19.88;36.35
59411;BME280;45215;32.610;-115.482;2022-08-02T08:31:43;101021.38;;;19.92;40.20
59411;BME280;45215;32.610;-115.482;2022-08-02T08:34:08;101017.97;;;20.39;44.01
59411;BME280;45215;32.610;-115.482;2022-08-02T08:36:34;101017.38;;;20.77;43.57
59411;BME280;45215;32.610;-115.482;2022-08-02T08:39:00;101009.88;;;20.47;39.01
59411;BME280;45215;32.610;-115.482;2022-08-02T08:41:26;101012.13;;;20.03;37.05
59411;BME280;45215;32.610;-115.482;2022-08-02T08:43:52;101010.94;;;19.81;38.24
59411;BME280;45215;32.610;-115.482;2022-08-02T08:46:27;101016.31;;;20.22;43.07
59411;BME280;45215;32.610;-115.482;2022-08-02T08:48:57;101010.97;;;20.69;45.66
59411;BME280;45215;32.610;-115.482;2022-08-02T08:51:24;101013.53;;;20.63;40.21
59411;BME280;45215;32.610;-115.482;2022-08-02T08:53:52;101006.56;;;20.21;37.28
59411;BME280;45215;32.610;-115.482;2022-08-02T08:56:19;101000.00;;;19.82;36.74
59411;BME280;45215;32.610;-115.482;2022-08-02T08:58:45;101005.22;;;20.09;41.70
59411;BME280;45215;32.610;-115.482;2022-08-02T09:01:14;101001.75;;;20.56;45.28
59411;BME280;45215;32.610;-115.482;2022-08-02T09:03:41;101008.63;;;20.75;41.42
59411;BME280;45215;32.610;-115.482;2022-08-02T09:06:07;100997.78;;;20.35;38.25
59411;BME280;45215;32.610;-115.482;2022-08-02T09:08:33;100994.44;;;19.92;36.38
59411;BME280;45215;32.610;-115.482;2022-08-02T09:10:59;100994.25;;;19.94;40.11
59411;BME280;45215;32.610;-115.482;2022-08-02T09:13:26;101007.88;;;20.41;44.25
59411;BME280;45215;32.610;-115.482;2022-08-02T09:15:59;101006.06;;;20.81;43.98
59411;BME280;45215;32.610;-115.482;2022-08-02T09:18:32;101002.47;;;20.49;39.12
59411;BME280;45215;32.610;-115.482;2022-08-02T09:21:03;101002.00;;;20.05;36.70
59411;BME280;45215;32.610;-115.482;2022-08-02T09:23:35;101007.22;;;19.82;38.88
59411;BME280;45215;32.610;-115.482;2022-08-02T09:26:03;101008.06;;;20.23;43.39
59411;BME280;45215;32.610;-115.482;2022-08-02T09:28:32;101016.22;;;20.71;45.78
59411;BME280;45215;32.610;-115.482;2022-08-02T09:33:30;101009.91;;;20.07;36.95
59411;BME280;45215;32.610;-115.482;2022-08-02T09:36:00;101004.53;;;19.74;36.88
59411;BME280;45215;32.610;-115.482;2022-08-02T09:38:26;101015.44;;;20.05;42.22
59411;BME280;45215;32.610;-115.482;2022-08-02T09:40:52;101017.44;;;20.52;45.60
59411;BME280;45215;32.610;-115.482;2022-08-02T09:43:18;101008.47;;;20.68;41.23
59411;BME280;45215;32.610;-115.482;2022-08-02T09:45:45;101012.63;;;20.23;38.27
59411;BME280;45215;32.610;-115.482;2022-08-02T09:48:11;101017.34;;;19.80;36.02
59411;BME280;45215;32.610;-115.482;2022-08-02T09:50:38;101021.69;;;19.81;40.47
59411;BME280;45215;32.610;-115.482;2022-08-02T09:53:04;101023.75;;;20.28;43.91
59411;BME280;45215;32.610;-115.482;2022-08-02T09:55:30;101021.44;;;20.64;43.36
59411;BME280;45215;32.610;-115.482;2022-08-02T09:57:56;101025.75;;;20.34;38.65
59411;BME280;45215;32.610;-115.482;2022-08-02T10:00:21;101022.38;;;19.91;36.67
59411;BME280;45215;32.610;-115.482;2022-08-02T10:08:30;101029.38;;;20.58;43.52
59411;BME280;45215;32.610;-115.482;2022-08-02T10:10:57;101029.28;;;20.35;38.69
59411;BME280;45215;32.610;-115.482;2022-08-02T10:13:29;101022.72;;;19.88;36.63
59411;BME280;45215;32.610;-115.482;2022-08-02T10:15:55;101028.09;;;19.64;38.08
59411;BME280;45215;32.610;-115.482;2022-08-02T10:18:21;101022.06;;;20.02;42.24
59411;BME280;45215;32.610;-115.482;2022-08-02T10:20:47;101023.69;;;20.44;43.78
59411;BME280;45215;32.610;-115.482;2022-08-02T10:23:14;101016.59;;;20.52;40.60
59411;BME280;45215;32.610;-115.482;2022-08-02T10:25:41;101015.31;;;20.07;37.60
59411;BME280;45215;32.610;-115.482;2022-08-02T10:28:07;101009.25;;;19.64;35.88
59411;BME280;45215;32.610;-115.482;2022-08-02T10:30:34;101018.66;;;19.76;39.75
59411;BME280;45215;32.610;-115.482;2022-08-02T10:33:01;101028.09;;;20.21;43.02
59411;BME280;45215;32.610;-115.482;2022-08-02T10:35:28;101026.00;;;20.56;43.19
59411;BME280;45215;32.610;-115.482;2022-08-02T10:37:59;101021.34;;;20.25;38.54
59411;BME280;45215;32.610;-115.482;2022-08-02T10:43:08;101023.38;;;19.66;39.83
59411;BME280;45215;32.610;-115.482;2022-08-02T10:45:34;101025.22;;;20.06;42.54
59411;BME280;45215;32.610;-115.482;2022-08-02T10:48:01;101026.22;;;20.46;44.90
59411;BME280;45215;32.610;-115.482;2022-08-02T10:55:53;101015.78;;;19.53;37.44
59411;BME280;45215;32.610;-115.482;2022-08-02T10:58:21;101019.00;;;19.89;41.07
59411;BME280;45215;32.610;-115.482;2022-08-02T11:00:47;101019.53;;;20.34;44.30
59411;BME280;45215;32.610;-115.482;2022-08-02T11:08:26;101015.28;;;19.57;36.07
59411;BME280;45215;32.610;-115.482;2022-08-02T11:10:56;101009.91;;;19.74;40.71
59411;BME280;45215;32.610;-115.482;2022-08-02T11:13:23;101011.94;;;20.21;44.14
59411;BME280;45215;32.610;-115.482;2022-08-02T11:15:51;101010.53;;;20.49;42.44
59411;BME280;45215;32.610;-115.482;2022-08-02T11:18:18;100997.31;;;20.15;38.44
59411;BME280;45215;32.610;-115.482;2022-08-02T11:20:44;101000.16;;;19.73;36.39
59411;BME280;45215;32.610;-115.482;2022-08-02T11:25:55;100998.13;;;19.99;42.70
59411;BME280;45215;32.610;-115.482;2022-08-02T11:28:20;101001.78;;;20.39;44.02
59411;BME280;45215;32.610;-115.482;2022-08-02T11:30:51;101002.50;;;20.33;39.73
59411;BME280;45215;32.610;-115.482;2022-08-02T11:33:20;101004.38;;;19.83;36.97
59411;BME280;45215;32.610;-115.482;2022-08-02T11:35:46;101007.03;;;19.43;36.38
59411;BME280;45215;32.610;-115.482;2022-08-02T11:38:16;101015.97;;;19.68;41.86
59411;BME280;45215;32.610;-115.482;2022-08-02T11:40:43;101018.84;;;20.15;44.54
59411;BME280;45215;32.610;-115.482;2022-08-02T11:43:20;101020.34;;;20.42;41.94
59411;BME280;45215;32.610;-115.482;2022-08-02T11:45:46;101017.31;;;20.04;38.04
59411;BME280;45215;32.610;-115.482;2022-08-02T11:48:12;101013.44;;;19.58;35.99
59411;BME280;45215;32.610;-115.482;2022-08-02T11:50:38;101019.31;;;19.53;39.29
59411;BME280;45215;32.610;-115.482;2022-08-02T11:53:13;101027.94;;;19.98;42.43
59411;BME280;45215;32.610;-115.482;2022-08-02T11:55:39;101022.34;;;20.40;44.53
59411;BME280;45215;32.610;-115.482;2022-08-02T11:58:06;101019.34;;;20.19;39.32
59411;BME280;45215;32.610;-115.482;2022-08-02T12:00:33;101024.72;;;19.70;36.85
59411;BME280;45215;32.610;-115.482;2022-08-02T12:02:59;101022.66;;;19.39;37.30
59411;BME280;45215;32.610;-115.482;2022-08-02T12:05:25;101029.75;;;19.73;41.79
59411;BME280;45215;32.610;-115.482;2022-08-02T12:07:51;101026.78;;;20.17;43.50
59411;BME280;45215;32.610;-115.482;2022-08-02T12:10:18;101028.44;;;20.34;41.17
59411;BME280;45215;32.610;-115.482;2022-08-02T12:15:34;101027.38;;;19.45;36.10
59411;BME280;45215;32.610;-115.482;2022-08-02T12:18:01;101042.22;;;19.57;41.06
59411;BME280;45215;32.610;-115.482;2022-08-02T12:20:46;101041.41;;;20.06;43.50
59411;BME280;45215;32.610;-115.482;2022-08-02T12:23:12;101047.09;;;20.36;42.21
59411;BME280;45215;32.610;-115.482;2022-08-02T12:25:38;101044.78;;;20.00;38.33
59411;BME280;45215;32.610;-115.482;2022-08-02T12:28:17;101049.25;;;19.50;36.22
59411;BME280;45215;32.610;-115.482;2022-08-02T12:30:54;101057.47;;;19.41;39.52
59411;BME280;45215;32.610;-115.482;2022-08-02T12:33:21;101057.53;;;19.90;42.94
59411;BME280;45215;32.610;-115.482;2022-08-02T12:35:47;101059.41;;;20.30;44.59
59411;BME280;45215;32.610;-115.482;2022-08-02T12:38:13;101065.63;;;20.14;39.25
59411;BME280;45215;32.610;-115.482;2022-08-02T12:40:39;101066.44;;;19.66;36.94
59411;BME280;45215;32.610;-115.482;2022-08-02T12:43:05;101080.81;;;19.32;36.97
59411;BME280;45215;32.610;-115.482;2022-08-02T12:45:45;101086.28;;;19.65;42.79
59411;BME280;45215;32.610;-115.482;2022-08-02T12:48:11;101085.66;;;20.12;45.19
59411;BME280;45215;32.610;-115.482;2022-08-02T12:50:38;101084.00;;;20.35;42.25
59411;BME280;45215;32.610;-115.482;2022-08-02T12:53:11;101086.00;;;19.92;38.23
59411;BME280;45215;32.610;-115.482;2022-08-02T12:55:47;101089.44;;;19.44;36.47
59411;BME280;45215;32.610;-115.482;2022-08-02T12:58:13;101081.38;;;19.52;39.83
59411;BME280;45215;32.610;-115.482;2022-08-02T13:00:39;101085.16;;;20.00;42.73
59411;BME280;45215;32.610;-115.482;2022-08-02T13:03:05;101087.88;;;20.41;43.05
59411;BME280;45215;32.610;-115.482;2022-08-02T13:05:33;101087.69;;;20.10;39.01